Terminal Aerodrome Forecast
Issued by NWS Charleston, SC

Home | Current Version | Previous Version | Text Only | Print | Product List | Glossary On
Versions: 1 2 3 4 5 6 7 8 9 10 11 12 13 14 15 16 17 18 19 20 21 22 23 24 25 26 27 28 29 30 31 32 33 34 35 36 37 38 39 40 41
955
FTUS42 KCHS 240140 AAA
TAFSAV
TAF AMD
KSAV 240140Z 2402/2424 24006KT P6SM SHRA VCTS SCT020CB BKN050
     FM240400 21008KT P6SM SCT015 BKN025
     FM241400 21010KT P6SM VCSH SCT020 BKN035
     FM241900 23011KT P6SM VCTS SCT025CB BKN040=

USA.gov is the U.S. government's official web portal to all federal, state and local government web resources and services.